sensor_id;sensor_type;location;lat;lon;timestamp;temperature;humidity
52849;DHT22;38714;53.180;5.812;2024-02-26T00:01:55;4.20;99.90
52849;DHT22;38714;53.180;5.812;2024-02-26T00:04:20;4.30;99.90
52849;DHT22;38714;53.180;5.812;2024-02-26T00:06:47;4.20;99.90
52849;DHT22;38714;53.180;5.812;2024-02-26T00:09:13;4.20;99.90
52849;DHT22;38714;53.180;5.812;2024-02-26T00:11:39;4.20;99.90
52849;DHT22;38714;53.180;5.812;2024-02-26T00:14:05;4.20;99.90
52849;DHT22;38714;53.180;5.812;2024-02-26T00:16:30;4.20;99.90
52849;DHT22;38714;53.180;5.812;2024-02-26T00:18:56;4.20;99.90
52849;DHT22;38714;53.180;5.812;2024-02-26T00:21:22;4.20;99.90
52849;DHT22;38714;53.180;5.812;2024-02-26T00:23:49;4.20;99.90
52849;DHT22;38714;53.180;5.812;2024-02-26T00:26:15;4.20;99.90
52849;DHT22;38714;53.180;5.812;2024-02-26T00:28:41;4.20;99.90
52849;DHT22;38714;53.180;5.812;2024-02-26T00:31:06;4.20;99.90
52849;DHT22;38714;53.180;5.812;2024-02-26T00:33:32;4.20;99.90
52849;DHT22;38714;53.180;5.812;2024-02-26T00:35:57;4.20;99.90
52849;DHT22;38714;53.180;5.812;2024-02-26T00:38:23;4.20;99.90
52849;DHT22;38714;53.180;5.812;2024-02-26T00:40:49;4.20;99.90
52849;DHT22;38714;53.180;5.812;2024-02-26T00:43:14;4.20;99.90
52849;DHT22;38714;53.180;5.812;2024-02-26T00:45:40;4.20;99.90
52849;DHT22;38714;53.180;5.812;2024-02-26T00:48:06;4.20;99.90
52849;DHT22;38714;53.180;5.812;2024-02-26T00:50:33;4.20;99.90
52849;DHT22;38714;53.180;5.812;2024-02-26T00:52:59;4.10;99.90
52849;DHT22;38714;53.180;5.812;2024-02-26T00:55:25;4.20;99.90
52849;DHT22;38714;53.180;5.812;2024-02-26T00:57:50;4.20;99.90
52849;DHT22;38714;53.180;5.812;2024-02-26T01:00:16;4.20;99.90
52849;DHT22;38714;53.180;5.812;2024-02-26T01:02:42;4.20;99.90
52849;DHT22;38714;53.180;5.812;2024-02-26T01:05:08;4.20;99.90
52849;DHT22;38714;53.180;5.812;2024-02-26T01:07:37;4.20;99.90
52849;DHT22;38714;53.180;5.812;2024-02-26T01:10:03;4.20;99.90
52849;DHT22;38714;53.180;5.812;2024-02-26T01:12:29;4.20;99.90
52849;DHT22;38714;53.180;5.812;2024-02-26T01:14:55;4.20;99.90
52849;DHT22;38714;53.180;5.812;2024-02-26T01:17:20;4.10;99.90
52849;DHT22;38714;53.180;5.812;2024-02-26T01:19:46;4.10;99.90
52849;DHT22;38714;53.180;5.812;2024-02-26T01:22:11;4.10;99.90
52849;DHT22;38714;53.180;5.812;2024-02-26T01:24:37;4.10;99.90
52849;DHT22;38714;53.180;5.812;2024-02-26T01:27:03;4.10;99.90
52849;DHT22;38714;53.180;5.812;2024-02-26T01:29:28;4.10;99.90
52849;DHT22;38714;53.180;5.812;2024-02-26T01:31:54;4.10;99.90
52849;DHT22;38714;53.180;5.812;2024-02-26T01:34:20;4.10;99.90
52849;DHT22;38714;53.180;5.812;2024-02-26T01:36:46;4.10;99.90
52849;DHT22;38714;53.180;5.812;2024-02-26T01:39:11;4.10;99.90
52849;DHT22;38714;53.180;5.812;2024-02-26T01:41:38;4.10;99.90
52849;DHT22;38714;53.180;5.812;2024-02-26T01:44:04;4.10;99.90
52849;DHT22;38714;53.180;5.812;2024-02-26T01:46:31;4.10;99.90
52849;DHT22;38714;53.180;5.812;2024-02-26T01:48:57;4.10;99.90
52849;DHT22;38714;53.180;5.812;2024-02-26T01:51:23;4.10;99.90
52849;DHT22;38714;53.180;5.812;2024-02-26T01:53:49;4.10;99.90
52849;DHT22;38714;53.180;5.812;2024-02-26T01:56:16;4.10;99.90
52849;DHT22;38714;53.180;5.812;2024-02-26T01:58:42;4.10;99.90
52849;DHT22;38714;53.180;5.812;2024-02-26T02:01:08;4.00;99.90
52849;DHT22;38714;53.180;5.812;2024-02-26T02:03:36;4.10;99.90
52849;DHT22;38714;53.180;5.812;2024-02-26T02:06:02;4.10;99.90
52849;DHT22;38714;53.180;5.812;2024-02-26T02:08:28;4.10;99.90
52849;DHT22;38714;53.180;5.812;2024-02-26T02:10:54;4.10;99.90
52849;DHT22;38714;53.180;5.812;2024-02-26T02:13:20;4.00;99.90
52849;DHT22;38714;53.180;5.812;2024-02-26T02:15:46;4.00;99.90
52849;DHT22;38714;53.180;5.812;2024-02-26T02:18:12;4.00;99.90
52849;DHT22;38714;53.180;5.812;2024-02-26T02:20:37;4.00;99.90
52849;DHT22;38714;53.180;5.812;2024-02-26T02:23:03;4.00;99.90
52849;DHT22;38714;53.180;5.812;2024-02-26T02:25:28;4.00;99.90
52849;DHT22;38714;53.180;5.812;2024-02-26T02:27:55;4.00;99.90
52849;DHT22;38714;53.180;5.812;2024-02-26T02:30:24;4.10;99.90
52849;DHT22;38714;53.180;5.812;2024-02-26T02:32:50;4.00;99.90
52849;DHT22;38714;53.180;5.812;2024-02-26T02:35:16;4.00;99.90
52849;DHT22;38714;53.180;5.812;2024-02-26T02:37:41;4.00;99.90
52849;DHT22;38714;53.180;5.812;2024-02-26T02:40:07;4.00;99.90
52849;DHT22;38714;53.180;5.812;2024-02-26T02:42:33;4.00;99.90
52849;DHT22;38714;53.180;5.812;2024-02-26T02:44:58;4.00;99.90
52849;DHT22;38714;53.180;5.812;2024-02-26T02:47:24;4.00;99.90
52849;DHT22;38714;53.180;5.812;2024-02-26T02:49:50;4.00;99.90
52849;DHT22;38714;53.180;5.812;2024-02-26T02:52:15;4.00;99.90
52849;DHT22;38714;53.180;5.812;2024-02-26T02:54:41;4.00;99.90
52849;DHT22;38714;53.180;5.812;2024-02-26T02:57:08;4.00;99.90
52849;DHT22;38714;53.180;5.812;2024-02-26T02:59:34;4.00;99.90
52849;DHT22;38714;53.180;5.812;2024-02-26T03:02:00;4.10;99.90
52849;DHT22;38714;53.180;5.812;2024-02-26T03:04:25;4.00;99.90
52849;DHT22;38714;53.180;5.812;2024-02-26T03:06:51;4.00;99.90
52849;DHT22;38714;53.180;5.812;2024-02-26T03:09:17;4.00;99.90
52849;DHT22;38714;53.180;5.812;2024-02-26T03:11:42;4.00;99.90
52849;DHT22;38714;53.180;5.812;2024-02-26T03:14:08;4.00;99.90
52849;DHT22;38714;53.180;5.812;2024-02-26T03:16:35;4.00;99.90
52849;DHT22;38714;53.180;5.812;2024-02-26T03:19:00;4.00;99.90
52849;DHT22;38714;53.180;5.812;2024-02-26T03:21:27;4.00;99.90
52849;DHT22;38714;53.180;5.812;2024-02-26T03:23:52;4.00;99.90
52849;DHT22;38714;53.180;5.812;2024-02-26T03:26:18;4.00;99.90
52849;DHT22;38714;53.180;5.812;2024-02-26T03:28:44;4.00;99.90
52849;DHT22;38714;53.180;5.812;2024-02-26T03:31:09;4.00;99.90
52849;DHT22;38714;53.180;5.812;2024-02-26T03:33:36;4.00;99.90
52849;DHT22;38714;53.180;5.812;2024-02-26T03:36:01;4.00;99.90
52849;DHT22;38714;53.180;5.812;2024-02-26T03:38:28;4.00;99.90
52849;DHT22;38714;53.180;5.812;2024-02-26T03:40:54;4.00;99.90
52849;DHT22;38714;53.180;5.812;2024-02-26T03:43:20;4.00;99.90
52849;DHT22;38714;53.180;5.812;2024-02-26T03:45:45;4.00;99.90
52849;DHT22;38714;53.180;5.812;2024-02-26T03:48:11;4.00;99.90
52849;DHT22;38714;53.180;5.812;2024-02-26T03:50:36;4.00;99.90
52849;DHT22;38714;53.180;5.812;2024-02-26T03:53:02;4.00;99.90
52849;DHT22;38714;53.180;5.812;2024-02-26T03:55:27;4.00;99.90
52849;DHT22;38714;53.180;5.812;2024-02-26T03:57:53;4.00;99.90
52849;DHT22;38714;53.180;5.812;2024-02-26T04:00:19;4.00;99.90
52849;DHT22;38714;53.180;5.812;2024-02-26T04:02:47;4.00;99.90
52849;DHT22;38714;53.180;5.812;2024-02-26T04:05:13;4.00;99.90
52849;DHT22;38714;53.180;5.812;2024-02-26T04:07:39;3.90;99.90
52849;DHT22;38714;53.180;5.812;2024-02-26T04:10:12;3.90;99.90
52849;DHT22;38714;53.180;5.812;2024-02-26T04:12:43;4.00;99.90
52849;DHT22;38714;53.180;5.812;2024-02-26T04:15:10;4.00;99.90
52849;DHT22;38714;53.180;5.812;2024-02-26T04:17:36;4.00;99.90
52849;DHT22;38714;53.180;5.812;2024-02-26T04:20:03;4.00;99.90
52849;DHT22;38714;53.180;5.812;2024-02-26T04:22:29;4.00;99.90
52849;DHT22;38714;53.180;5.812;2024-02-26T04:24:54;4.00;99.90
52849;DHT22;38714;53.180;5.812;2024-02-26T04:27:20;4.00;99.90
52849;DHT22;38714;53.180;5.812;2024-02-26T04:29:45;4.00;99.90
52849;DHT22;38714;53.180;5.812;2024-02-26T04:32:11;4.10;99.90
52849;DHT22;38714;53.180;5.812;2024-02-26T04:34:37;4.10;99.90
52849;DHT22;38714;53.180;5.812;2024-02-26T04:37:02;4.10;99.90
52849;DHT22;38714;53.180;5.812;2024-02-26T04:39:28;4.10;99.90
52849;DHT22;38714;53.180;5.812;2024-02-26T04:41:54;4.10;99.90
52849;DHT22;38714;53.180;5.812;2024-02-26T04:44:19;4.10;99.90
52849;DHT22;38714;53.180;5.812;2024-02-26T04:46:45;4.20;99.90
52849;DHT22;38714;53.180;5.812;2024-02-26T04:49:10;4.20;99.90
52849;DHT22;38714;53.180;5.812;2024-02-26T04:51:36;4.10;99.90
52849;DHT22;38714;53.180;5.812;2024-02-26T04:54:02;4.20;99.90
52849;DHT22;38714;53.180;5.812;2024-02-26T04:56:28;4.20;99.90
52849;DHT22;38714;53.180;5.812;2024-02-26T04:58:54;4.20;99.90
52849;DHT22;38714;53.180;5.812;2024-02-26T05:01:19;4.20;99.90
52849;DHT22;38714;53.180;5.812;2024-02-26T05:03:45;4.20;99.90
52849;DHT22;38714;53.180;5.812;2024-02-26T05:06:10;4.20;99.90
52849;DHT22;38714;53.180;5.812;2024-02-26T05:08:36;4.20;99.90
52849;DHT22;38714;53.180;5.812;2024-02-26T05:11:03;4.20;99.90
52849;DHT22;38714;53.180;5.812;2024-02-26T05:13:29;4.20;99.90
52849;DHT22;38714;53.180;5.812;2024-02-26T05:15:55;4.30;99.90
52849;DHT22;38714;53.180;5.812;2024-02-26T05:18:22;4.30;99.90
52849;DHT22;38714;53.180;5.812;2024-02-26T05:20:47;4.20;99.90
52849;DHT22;38714;53.180;5.812;2024-02-26T05:23:13;4.30;99.90
52849;DHT22;38714;53.180;5.812;2024-02-26T05:25:39;4.30;99.90
52849;DHT22;38714;53.180;5.812;2024-02-26T05:28:04;4.30;99.90
52849;DHT22;38714;53.180;5.812;2024-02-26T05:30:30;4.30;99.90
52849;DHT22;38714;53.180;5.812;2024-02-26T05:32:55;4.30;99.90
52849;DHT22;38714;53.180;5.812;2024-02-26T05:35:21;4.30;99.90
52849;DHT22;38714;53.180;5.812;2024-02-26T05:37:47;4.30;99.90
52849;DHT22;38714;53.180;5.812;2024-02-26T05:40:12;4.30;99.90
52849;DHT22;38714;53.180;5.812;2024-02-26T05:42:38;4.30;99.90
52849;DHT22;38714;53.180;5.812;2024-02-26T05:45:04;4.30;99.90
52849;DHT22;38714;53.180;5.812;2024-02-26T05:47:35;4.30;99.90
52849;DHT22;38714;53.180;5.812;2024-02-26T05:50:01;4.30;99.90
52849;DHT22;38714;53.180;5.812;2024-02-26T05:52:27;4.30;99.90
52849;DHT22;38714;53.180;5.812;2024-02-26T05:54:54;4.30;99.90
52849;DHT22;38714;53.180;5.812;2024-02-26T05:57:20;4.30;99.90
52849;DHT22;38714;53.180;5.812;2024-02-26T05:59:45;4.30;99.90
52849;DHT22;38714;53.180;5.812;2024-02-26T06:02:11;4.30;99.90
52849;DHT22;38714;53.180;5.812;2024-02-26T06:04:36;4.30;99.90
52849;DHT22;38714;53.180;5.812;2024-02-26T06:07:02;4.30;99.90
52849;DHT22;38714;53.180;5.812;2024-02-26T06:09:28;4.30;99.90
52849;DHT22;38714;53.180;5.812;2024-02-26T06:11:53;4.30;99.90
52849;DHT22;38714;53.180;5.812;2024-02-26T06:14:20;4.30;99.90
52849;DHT22;38714;53.180;5.812;2024-02-26T06:16:46;4.30;99.90
52849;DHT22;38714;53.180;5.812;2024-02-26T06:19:11;4.30;99.90
52849;DHT22;38714;53.180;5.812;2024-02-26T06:21:37;4.30;99.90
52849;DHT22;38714;53.180;5.812;2024-02-26T06:24:03;4.30;99.90
52849;DHT22;38714;53.180;5.812;2024-02-26T06:26:28;4.30;99.90
52849;DHT22;38714;53.180;5.812;2024-02-26T06:28:55;4.30;99.90
52849;DHT22;38714;53.180;5.812;2024-02-26T06:31:21;4.30;99.90
52849;DHT22;38714;53.180;5.812;2024-02-26T06:33:48;4.30;99.90
52849;DHT22;38714;53.180;5.812;2024-02-26T06:36:15;4.30;99.90
52849;DHT22;38714;53.180;5.812;2024-02-26T06:38:41;4.30;99.90
52849;DHT22;38714;53.180;5.812;2024-02-26T06:41:07;4.30;99.90
52849;DHT22;38714;53.180;5.812;2024-02-26T06:43:32;4.40;99.90
52849;DHT22;38714;53.180;5.812;2024-02-26T06:45:58;4.40;99.90
52849;DHT22;38714;53.180;5.812;2024-02-26T06:48:24;4.40;99.90
52849;DHT22;38714;53.180;5.812;2024-02-26T06:50:50;4.40;99.90
52849;DHT22;38714;53.180;5.812;2024-02-26T06:53:15;4.40;99.90
52849;DHT22;38714;53.180;5.812;2024-02-26T06:55:42;4.50;99.90
52849;DHT22;38714;53.180;5.812;2024-02-26T06:58:08;4.50;99.90
52849;DHT22;38714;53.180;5.812;2024-02-26T07:00:34;4.40;99.90
52849;DHT22;38714;53.180;5.812;2024-02-26T07:02:59;4.50;99.90
52849;DHT22;38714;53.180;5.812;2024-02-26T07:05:25;4.40;99.90
52849;DHT22;38714;53.180;5.812;2024-02-26T07:07:51;4.40;99.90
52849;DHT22;38714;53.180;5.812;2024-02-26T07:10:17;4.40;99.90
52849;DHT22;38714;53.180;5.812;2024-02-26T07:12:42;4.40;99.90
52849;DHT22;38714;53.180;5.812;2024-02-26T07:15:09;4.40;99.90
52849;DHT22;38714;53.180;5.812;2024-02-26T07:17:35;4.40;99.90
52849;DHT22;38714;53.180;5.812;2024-02-26T07:20:01;4.40;99.90
52849;DHT22;38714;53.180;5.812;2024-02-26T07:22:30;4.40;99.90
52849;DHT22;38714;53.180;5.812;2024-02-26T07:24:55;4.40;99.90
52849;DHT22;38714;53.180;5.812;2024-02-26T07:27:21;4.40;99.90
52849;DHT22;38714;53.180;5.812;2024-02-26T07:29:47;4.50;99.90
52849;DHT22;38714;53.180;5.812;2024-02-26T07:32:12;4.40;99.90
52849;DHT22;38714;53.180;5.812;2024-02-26T07:34:38;4.50;99.90
52849;DHT22;38714;53.180;5.812;2024-02-26T07:37:07;4.40;99.90
52849;DHT22;38714;53.180;5.812;2024-02-26T07:39:33;4.40;99.90
52849;DHT22;38714;53.180;5.812;2024-02-26T07:41:59;4.50;99.90
52849;DHT22;38714;53.180;5.812;2024-02-26T07:44:25;4.40;99.90
52849;DHT22;38714;53.180;5.812;2024-02-26T07:46:50;4.40;99.90
52849;DHT22;38714;53.180;5.812;2024-02-26T07:49:16;4.50;99.90
52849;DHT22;38714;53.180;5.812;2024-02-26T07:51:42;4.40;99.90
52849;DHT22;38714;53.180;5.812;2024-02-26T07:54:07;4.50;99.90
52849;DHT22;38714;53.180;5.812;2024-02-26T07:56:33;4.50;99.90
52849;DHT22;38714;53.180;5.812;2024-02-26T07:58:59;4.50;99.90
52849;DHT22;38714;53.180;5.812;2024-02-26T08:01:24;4.50;99.90
52849;DHT22;38714;53.180;5.812;2024-02-26T08:03:55;4.50;99.90
52849;DHT22;38714;53.180;5.812;2024-02-26T08:06:21;4.50;99.90
52849;DHT22;38714;53.180;5.812;2024-02-26T08:08:47;4.50;99.90
52849;DHT22;38714;53.180;5.812;2024-02-26T08:11:14;4.60;99.90
52849;DHT22;38714;53.180;5.812;2024-02-26T08:13:40;4.60;99.90
52849;DHT22;38714;53.180;5.812;2024-02-26T08:16:06;4.60;99.90
52849;DHT22;38714;53.180;5.812;2024-02-26T08:18:31;4.60;99.90
52849;DHT22;38714;53.180;5.812;2024-02-26T08:20:57;4.60;99.90
52849;DHT22;38714;53.180;5.812;2024-02-26T08:23:23;4.60;99.90
52849;DHT22;38714;53.180;5.812;2024-02-26T08:25:49;4.60;99.90
52849;DHT22;38714;53.180;5.812;2024-02-26T08:28:14;4.70;99.90
52849;DHT22;38714;53.180;5.812;2024-02-26T08:30:43;4.70;99.90
52849;DHT22;38714;53.180;5.812;2024-02-26T08:33:09;4.70;99.90
52849;DHT22;38714;53.180;5.812;2024-02-26T08:35:35;4.80;99.90
52849;DHT22;38714;53.180;5.812;2024-02-26T08:38:01;4.80;99.90
52849;DHT22;38714;53.180;5.812;2024-02-26T08:40:28;4.90;99.90
52849;DHT22;38714;53.180;5.812;2024-02-26T08:42:54;4.80;99.90
52849;DHT22;38714;53.180;5.812;2024-02-26T08:45:21;4.90;99.90
52849;DHT22;38714;53.180;5.812;2024-02-26T08:47:46;4.90;99.90
52849;DHT22;38714;53.180;5.812;2024-02-26T08:50:12;4.90;99.90
52849;DHT22;38714;53.180;5.812;2024-02-26T08:52:38;4.90;99.90
52849;DHT22;38714;53.180;5.812;2024-02-26T08:55:04;4.90;99.90
52849;DHT22;38714;53.180;5.812;2024-02-26T08:57:31;5.00;99.90
52849;DHT22;38714;53.180;5.812;2024-02-26T08:59:59;5.00;99.90
52849;DHT22;38714;53.180;5.812;2024-02-26T09:02:25;5.00;99.90
52849;DHT22;38714;53.180;5.812;2024-02-26T09:04:51;5.10;99.90
52849;DHT22;38714;53.180;5.812;2024-02-26T09:07:21;5.10;99.90
52849;DHT22;38714;53.180;5.812;2024-02-26T09:09:46;5.00;99.90
52849;DHT22;38714;53.180;5.812;2024-02-26T09:12:12;5.10;99.90
52849;DHT22;38714;53.180;5.812;2024-02-26T09:14:38;5.10;99.90
52849;DHT22;38714;53.180;5.812;2024-02-26T09:17:03;5.20;99.90
52849;DHT22;38714;53.180;5.812;2024-02-26T09:19:29;5.20;99.90
52849;DHT22;38714;53.180;5.812;2024-02-26T09:21:54;5.20;99.90
52849;DHT22;38714;53.180;5.812;2024-02-26T09:24:24;5.30;99.90
52849;DHT22;38714;53.180;5.812;2024-02-26T09:26:50;5.30;99.90
52849;DHT22;38714;53.180;5.812;2024-02-26T09:29:16;5.30;99.90
52849;DHT22;38714;53.180;5.812;2024-02-26T09:31:41;5.30;99.90
52849;DHT22;38714;53.180;5.812;2024-02-26T09:34:07;5.40;99.90
52849;DHT22;38714;53.180;5.812;2024-02-26T09:36:33;5.40;99.90
52849;DHT22;38714;53.180;5.812;2024-02-26T09:38:59;5.50;99.90
52849;DHT22;38714;53.180;5.812;2024-02-26T09:41:28;5.50;99.90
52849;DHT22;38714;53.180;5.812;2024-02-26T09:43:56;5.50;99.90
52849;DHT22;38714;53.180;5.812;2024-02-26T09:46:23;5.50;99.90
52849;DHT22;38714;53.180;5.812;2024-02-26T09:48:49;5.60;99.90
52849;DHT22;38714;53.180;5.812;2024-02-26T09:51:16;5.60;99.90
52849;DHT22;38714;53.180;5.812;2024-02-26T09:53:46;5.60;99.90
52849;DHT22;38714;53.180;5.812;2024-02-26T09:56:13;5.70;99.90
52849;DHT22;38714;53.180;5.812;2024-02-26T09:58:41;5.70;99.90
52849;DHT22;38714;53.180;5.812;2024-02-26T10:01:13;5.70;99.90
52849;DHT22;38714;53.180;5.812;2024-02-26T10:03:41;5.70;99.90
52849;DHT22;38714;53.180;5.812;2024-02-26T10:06:12;5.80;99.90
52849;DHT22;38714;53.180;5.812;2024-02-26T10:08:40;5.80;99.90
52849;DHT22;38714;53.180;5.812;2024-02-26T10:11:08;5.80;99.90
52849;DHT22;38714;53.180;5.812;2024-02-26T10:13:35;5.90;99.90
52849;DHT22;38714;53.180;5.812;2024-02-26T10:16:02;6.00;99.90
52849;DHT22;38714;53.180;5.812;2024-02-26T10:18:48;5.90;99.90
52849;DHT22;38714;53.180;5.812;2024-02-26T10:21:16;5.90;99.90
52849;DHT22;38714;53.180;5.812;2024-02-26T10:23:43;5.90;99.90
52849;DHT22;38714;53.180;5.812;2024-02-26T10:26:10;5.90;99.90
52849;DHT22;38714;53.180;5.812;2024-02-26T10:28:37;5.90;99.90
52849;DHT22;38714;53.180;5.812;2024-02-26T10:31:03;5.90;99.90
52849;DHT22;38714;53.180;5.812;2024-02-26T10:33:29;5.90;99.90
52849;DHT22;38714;53.180;5.812;2024-02-26T10:35:55;6.00;99.90
52849;DHT22;38714;53.180;5.812;2024-02-26T10:38:20;5.90;99.90
52849;DHT22;38714;53.180;5.812;2024-02-26T10:40:48;6.00;99.90
52849;DHT22;38714;53.180;5.812;2024-02-26T10:43:14;6.00;99.90
52849;DHT22;38714;53.180;5.812;2024-02-26T10:45:42;6.00;99.90
52849;DHT22;38714;53.180;5.812;2024-02-26T10:48:13;6.00;99.90
52849;DHT22;38714;53.180;5.812;2024-02-26T10:50:40;6.00;99.90
52849;DHT22;38714;53.180;5.812;2024-02-26T10:53:17;6.00;99.90
52849;DHT22;38714;53.180;5.812;2024-02-26T10:55:48;6.00;99.90
52849;DHT22;38714;53.180;5.812;2024-02-26T10:58:14;6.00;99.90
52849;DHT22;38714;53.180;5.812;2024-02-26T11:00:42;6.00;99.90
52849;DHT22;38714;53.180;5.812;2024-02-26T11:03:09;6.00;99.90
52849;DHT22;38714;53.180;5.812;2024-02-26T11:05:36;6.10;99.90
52849;DHT22;38714;53.180;5.812;2024-02-26T11:08:03;6.10;99.90
52849;DHT22;38714;53.180;5.812;2024-02-26T11:10:30;6.10;99.90
52849;DHT22;38714;53.180;5.812;2024-02-26T11:12:57;6.10;99.90
52849;DHT22;38714;53.180;5.812;2024-02-26T11:15:25;6.10;99.90
52849;DHT22;38714;53.180;5.812;2024-02-26T11:17:52;6.10;99.90
52849;DHT22;38714;53.180;5.812;2024-02-26T11:20:19;6.10;99.90
52849;DHT22;38714;53.180;5.812;2024-02-26T11:22:45;6.20;99.90
52849;DHT22;38714;53.180;5.812;2024-02-26T11:25:11;6.20;99.90
52849;DHT22;38714;53.180;5.812;2024-02-26T11:27:48;6.20;99.90
52849;DHT22;38714;53.180;5.812;2024-02-26T11:30:15;6.20;99.90
52849;DHT22;38714;53.180;5.812;2024-02-26T11:32:47;6.20;99.90
52849;DHT22;38714;53.180;5.812;2024-02-26T11:35:13;6.20;99.90
52849;DHT22;38714;53.180;5.812;2024-02-26T11:37:41;6.30;99.90
52849;DHT22;38714;53.180;5.812;2024-02-26T11:40:11;6.30;99.90
52849;DHT22;38714;53.180;5.812;2024-02-26T11:42:43;6.30;99.90
52849;DHT22;38714;53.180;5.812;2024-02-26T11:48:25;6.30;99.90
52849;DHT22;38714;53.180;5.812;2024-02-26T11:50:55;6.30;99.90
52849;DHT22;38714;53.180;5.812;2024-02-26T11:53:27;6.30;99.90
52849;DHT22;38714;53.180;5.812;2024-02-26T11:58:39;6.30;99.90
52849;DHT22;38714;53.180;5.812;2024-02-26T12:01:06;6.40;99.90
52849;DHT22;38714;53.180;5.812;2024-02-26T12:03:31;6.40;99.90
52849;DHT22;38714;53.180;5.812;2024-02-26T12:05:57;6.40;99.90
52849;DHT22;38714;53.180;5.812;2024-02-26T12:08:23;6.40;99.90
52849;DHT22;38714;53.180;5.812;2024-02-26T12:10:51;6.40;99.90
52849;DHT22;38714;53.180;5.812;2024-02-26T12:13:29;6.50;99.90
52849;DHT22;38714;53.180;5.812;2024-02-26T12:15:57;6.50;99.90
52849;DHT22;38714;53.180;5.812;2024-02-26T12:18:23;6.50;99.90
52849;DHT22;38714;53.180;5.812;2024-02-26T12:21:04;6.50;99.90
52849;DHT22;38714;53.180;5.812;2024-02-26T12:23:30;6.50;99.90
52849;DHT22;38714;53.180;5.812;2024-02-26T12:25:59;6.50;99.90
52849;DHT22;38714;53.180;5.812;2024-02-26T12:28:31;6.50;99.90
52849;DHT22;38714;53.180;5.812;2024-02-26T12:30:57;6.50;99.90
52849;DHT22;38714;53.180;5.812;2024-02-26T12:33:25;6.50;99.90
52849;DHT22;38714;53.180;5.812;2024-02-26T12:35:52;6.50;99.90
52849;DHT22;38714;53.180;5.812;2024-02-26T12:38:18;6.50;99.90
52849;DHT22;38714;53.180;5.812;2024-02-26T12:40:44;6.50;99.90
52849;DHT22;38714;53.180;5.812;2024-02-26T12:43:10;6.50;99.90
52849;DHT22;38714;53.180;5.812;2024-02-26T12:45:41;6.50;99.90
52849;DHT22;38714;53.180;5.812;2024-02-26T12:48:07;6.50;99.90
52849;DHT22;38714;53.180;5.812;2024-02-26T12:50:33;6.50;99.90
52849;DHT22;38714;53.180;5.812;2024-02-26T12:52:59;6.50;99.90
52849;DHT22;38714;53.180;5.812;2024-02-26T12:55:25;6.60;99.90
52849;DHT22;38714;53.180;5.812;2024-02-26T12:57:52;6.50;99.90
52849;DHT22;38714;53.180;5.812;2024-02-26T13:00:22;6.50;99.90
52849;DHT22;38714;53.180;5.812;2024-02-26T13:02:49;6.60;99.90
52849;DHT22;38714;53.180;5.812;2024-02-26T13:05:16;6.60;99.90
52849;DHT22;38714;53.180;5.812;2024-02-26T13:07:43;6.50;99.90
52849;DHT22;38714;53.180;5.812;2024-02-26T13:10:09;6.50;99.90
52849;DHT22;38714;53.180;5.812;2024-02-26T13:12:41;6.50;99.90
52849;DHT22;38714;53.180;5.812;2024-02-26T13:15:07;6.50;99.90
52849;DHT22;38714;53.180;5.812;2024-02-26T13:17:34;6.50;99.90
52849;DHT22;38714;53.180;5.812;2024-02-26T13:20:00;6.50;99.90
52849;DHT22;38714;53.180;5.812;2024-02-26T13:22:26;6.40;99.90
52849;DHT22;38714;53.180;5.812;2024-02-26T13:24:56;6.40;99.90
52849;DHT22;38714;53.180;5.812;2024-02-26T13:27:23;6.40;99.90
52849;DHT22;38714;53.180;5.812;2024-02-26T13:29:49;6.40;99.90
52849;DHT22;38714;53.180;5.812;2024-02-26T13:32:14;6.30;99.90
52849;DHT22;38714;53.180;5.812;2024-02-26T13:34:40;6.30;99.90
52849;DHT22;38714;53.180;5.812;2024-02-26T13:37:05;6.20;99.90
52849;DHT22;38714;53.180;5.812;2024-02-26T13:39:31;6.20;99.90
52849;DHT22;38714;53.180;5.812;2024-02-26T13:41:57;6.30;99.90
52849;DHT22;38714;53.180;5.812;2024-02-26T13:44:23;6.20;99.90
52849;DHT22;38714;53.180;5.812;2024-02-26T13:46:49;6.20;99.90
52849;DHT22;38714;53.180;5.812;2024-02-26T13:49:15;6.20;99.90
52849;DHT22;38714;53.180;5.812;2024-02-26T13:51:41;6.20;99.90
52849;DHT22;38714;53.180;5.812;2024-02-26T13:54:07;6.20;99.90
52849;DHT22;38714;53.180;5.812;2024-02-26T13:56:33;6.20;99.90
52849;DHT22;38714;53.180;5.812;2024-02-26T13:58:59;6.10;99.90
52849;DHT22;38714;53.180;5.812;2024-02-26T14:01:25;6.10;99.90
52849;DHT22;38714;53.180;5.812;2024-02-26T14:03:51;6.20;99.90
52849;DHT22;38714;53.180;5.812;2024-02-26T14:06:16;6.20;99.90
52849;DHT22;38714;53.180;5.812;2024-02-26T14:08:42;6.10;99.90
52849;DHT22;38714;53.180;5.812;2024-02-26T14:11:08;6.10;99.90
52849;DHT22;38714;53.180;5.812;2024-02-26T14:13:34;6.10;99.90
52849;DHT22;38714;53.180;5.812;2024-02-26T14:15:59;6.10;99.90
52849;DHT22;38714;53.180;5.812;2024-02-26T14:18:25;6.10;99.90
52849;DHT22;38714;53.180;5.812;2024-02-26T14:20:50;6.10;99.90
52849;DHT22;38714;53.180;5.812;2024-02-26T14:23:16;6.10;99.90
52849;DHT22;38714;53.180;5.812;2024-02-26T14:25:42;6.10;99.90
52849;DHT22;38714;53.180;5.812;2024-02-26T14:28:08;6.10;99.90
52849;DHT22;38714;53.180;5.812;2024-02-26T14:30:34;6.10;99.90
52849;DHT22;38714;53.180;5.812;2024-02-26T14:33:00;6.10;99.90
52849;DHT22;38714;53.180;5.812;2024-02-26T14:35:26;6.10;99.90
52849;DHT22;38714;53.180;5.812;2024-02-26T14:37:52;6.10;99.90
52849;DHT22;38714;53.180;5.812;2024-02-26T14:40:17;6.10;99.90
52849;DHT22;38714;53.180;5.812;2024-02-26T14:42:44;6.10;99.90
52849;DHT22;38714;53.180;5.812;2024-02-26T14:45:10;6.10;99.90
52849;DHT22;38714;53.180;5.812;2024-02-26T14:47:36;6.10;99.90
52849;DHT22;38714;53.180;5.812;2024-02-26T14:50:02;6.00;99.90
52849;DHT22;38714;53.180;5.812;2024-02-26T14:52:28;6.10;99.90
52849;DHT22;38714;53.180;5.812;2024-02-26T14:54:53;6.10;99.90
52849;DHT22;38714;53.180;5.812;2024-02-26T14:57:19;6.10;99.90
52849;DHT22;38714;53.180;5.812;2024-02-26T14:59:45;6.00;99.90
52849;DHT22;38714;53.180;5.812;2024-02-26T15:02:10;6.10;99.90
52849;DHT22;38714;53.180;5.812;2024-02-26T15:04:36;6.10;99.90
52849;DHT22;38714;53.180;5.812;2024-02-26T15:07:02;6.10;99.90
52849;DHT22;38714;53.180;5.812;2024-02-26T15:09:28;6.10;99.90
52849;DHT22;38714;53.180;5.812;2024-02-26T15:11:54;6.10;99.90
52849;DHT22;38714;53.180;5.812;2024-02-26T15:14:19;6.00;99.90
52849;DHT22;38714;53.180;5.812;2024-02-26T15:16:45;6.10;99.90
52849;DHT22;38714;53.180;5.812;2024-02-26T15:19:11;6.10;99.90
52849;DHT22;38714;53.180;5.812;2024-02-26T15:21:43;6.10;99.90
52849;DHT22;38714;53.180;5.812;2024-02-26T15:24:09;6.10;99.90
52849;DHT22;38714;53.180;5.812;2024-02-26T15:26:37;6.10;99.90
52849;DHT22;38714;53.180;5.812;2024-02-26T15:29:02;6.10;99.90
52849;DHT22;38714;53.180;5.812;2024-02-26T15:31:28;6.10;99.90
52849;DHT22;38714;53.180;5.812;2024-02-26T15:33:53;6.10;99.90
52849;DHT22;38714;53.180;5.812;2024-02-26T15:36:19;6.10;99.90
52849;DHT22;38714;53.180;5.812;2024-02-26T15:38:44;6.10;99.90
52849;DHT22;38714;53.180;5.812;2024-02-26T15:41:11;6.10;99.90
52849;DHT22;38714;53.180;5.812;2024-02-26T15:43:38;6.10;99.90
52849;DHT22;38714;53.180;5.812;2024-02-26T15:46:03;6.00;99.90